Terminal Aerodrome Forecast
Issued by NWS Sterling, VA

Home | Current Version | Previous Version | Text Only | Print | Product List | Glossary On
Versions: 1 2 3 4 5 6 7 8 9 10 11 12 13 14 15 16 17 18 19 20 21 22 23 24 25 26 27 28
000
FTUS41 KLWX 031724
TAFBWI
TAF
KBWI 031724Z 0318/0424 06007KT 6SM -DZ OVC015
     FM040300 06007KT 5SM -RADZ BR BKN008 OVC015
     FM040800 05008KT 5SM -RADZ BR BKN004 OVC008
     FM041400 05010KT 5SM -RADZ BKN008 OVC015
     FM041800 05010KT P6SM OVC015=

USA.gov is the U.S. government's official web portal to all federal, state and local government web resources and services.